createdAt,value
2017-07-05T00:01:55.549Z,58.30
2017-07-05T00:04:23.650Z,58.10
2017-07-05T00:06:51.806Z,58.30
2017-07-05T00:09:19.908Z,58.10
2017-07-05T00:11:48.058Z,58.30
2017-07-05T00:14:17.294Z,57.80
2017-07-05T00:16:46.157Z,58.80
2017-07-05T00:19:14.294Z,58.10
2017-07-05T00:21:42.388Z,58.30
2017-07-05T00:24:10.620Z,58.40
2017-07-05T00:26:38.712Z,58.50
2017-07-05T00:29:07.612Z,58.70
2017-07-05T00:31:35.714Z,58.70
2017-07-05T00:34:03.832Z,58.90
2017-07-05T00:36:31.940Z,59.00
2017-07-05T00:39:00.957Z,59.00
2017-07-05T00:41:30.297Z,59.00
2017-07-05T00:43:58.400Z,59.20
2017-07-05T00:46:26.497Z,59.20
2017-07-05T00:48:55.393Z,59.20
2017-07-05T00:51:23.521Z,59.20
2017-07-05T00:53:51.614Z,59.20
2017-07-05T00:56:19.873Z,59.00
2017-07-05T00:58:47.953Z,59.20
2017-07-05T01:01:16.081Z,59.20
2017-07-05T01:03:44.937Z,59.30
2017-07-05T01:06:13.029Z,59.20
2017-07-05T01:08:41.156Z,59.60
2017-07-05T01:11:09.391Z,59.60
2017-07-05T01:13:37.484Z,59.60
2017-07-05T01:16:06.376Z,59.50
2017-07-05T01:18:34.476Z,60.10
2017-07-05T01:21:02.620Z,59.50
2017-07-05T01:23:31.488Z,59.70
2017-07-05T01:25:59.597Z,59.60
2017-07-05T01:28:28.464Z,60.20
2017-07-05T01:30:56.593Z,60.10
2017-07-05T01:33:24.713Z,60.30
2017-07-05T01:35:52.814Z,60.30
2017-07-05T01:38:21.793Z,61.20
2017-07-05T01:40:49.918Z,60.30
2017-07-05T01:43:18.014Z,60.30
2017-07-05T01:45:46.150Z,60.40
2017-07-05T01:48:15.000Z,60.30
2017-07-05T01:50:43.109Z,60.30
2017-07-05T01:53:11.356Z,60.60
2017-07-05T01:55:39.449Z,60.80
2017-07-05T01:58:07.553Z,60.80
2017-07-05T02:00:35.792Z,61.10
2017-07-05T02:03:03.901Z,61.40
2017-07-05T02:05:33.231Z,61.40
2017-07-05T02:08:01.372Z,61.70
2017-07-05T02:10:29.465Z,61.50
2017-07-05T02:12:58.326Z,61.70
2017-07-05T02:15:26.549Z,61.60
2017-07-05T02:17:55.416Z,62.10
2017-07-05T02:20:23.549Z,62.10
2017-07-05T02:22:51.643Z,61.90
2017-07-05T02:25:19.733Z,61.90
2017-07-05T02:27:47.954Z,61.80
2017-07-05T02:30:16.810Z,62.10
2017-07-05T02:32:44.964Z,62.10
2017-07-05T02:35:13.056Z,62.00
2017-07-05T02:37:41.156Z,62.20
2017-07-05T02:40:09.288Z,62.30
2017-07-05T02:42:37.383Z,63.20
2017-07-05T02:45:05.484Z,62.50
2017-07-05T02:47:33.601Z,62.60
2017-07-05T02:50:01.833Z,62.90
2017-07-05T02:52:29.925Z,63.20
2017-07-05T02:54:58.017Z,63.10
2017-07-05T02:57:26.909Z,63.30
2017-07-05T02:59:55.006Z,63.20
2017-07-05T03:02:23.096Z,63.40
2017-07-05T03:04:51.357Z,63.40
2017-07-05T03:07:19.452Z,63.40
2017-07-05T03:09:47.577Z,63.40
2017-07-05T03:12:15.672Z,63.60
2017-07-05T03:14:44.538Z,64.20
2017-07-05T03:17:12.722Z,63.70
2017-07-05T03:19:40.860Z,63.40
2017-07-05T03:22:08.946Z,63.50
2017-07-05T03:24:37.160Z,63.70
2017-07-05T03:27:05.249Z,63.80
2017-07-05T03:29:34.148Z,64.00
2017-07-05T03:32:03.005Z,64.30
2017-07-05T03:34:31.102Z,64.10
2017-07-05T03:36:59.209Z,64.30
2017-07-05T03:39:28.079Z,64.30
2017-07-05T03:41:56.330Z,64.30
2017-07-05T03:44:24.428Z,64.30
2017-07-05T03:46:52.525Z,64.60
2017-07-05T03:49:21.418Z,64.80
2017-07-05T03:51:50.269Z,65.90
2017-07-05T03:54:18.405Z,65.10
2017-07-05T03:56:46.498Z,65.00
2017-07-05T03:59:14.598Z,65.20
2017-07-05T04:01:42.846Z,65.30
2017-07-05T04:04:10.934Z,65.50
2017-07-05T04:06:39.093Z,65.30
2017-07-05T04:09:07.193Z,65.70
2017-07-05T04:11:35.285Z,65.70
2017-07-05T04:14:03.408Z,65.50
2017-07-05T04:16:32.269Z,65.50
2017-07-05T04:19:00.525Z,65.50
2017-07-05T04:21:28.627Z,65.40
2017-07-05T04:23:56.774Z,65.50
2017-07-05T04:26:24.876Z,65.60
2017-07-05T04:28:52.978Z,65.60
2017-07-05T04:31:21.124Z,65.60
2017-07-05T04:33:49.232Z,65.70
2017-07-05T04:36:17.332Z,65.50
2017-07-05T04:38:45.572Z,65.70
2017-07-05T04:41:13.662Z,65.80
2017-07-05T04:43:41.925Z,65.90
2017-07-05T04:46:10.026Z,66.20
2017-07-05T04:48:38.890Z,66.70
2017-07-05T04:51:07.009Z,66.10
2017-07-05T04:53:35.868Z,66.30
2017-07-05T04:56:04.015Z,66.30
2017-07-05T04:58:32.115Z,66.50
2017-07-05T05:01:00.220Z,66.30
2017-07-05T05:03:28.385Z,66.20
2017-07-05T05:05:56.509Z,66.10
2017-07-05T05:08:24.613Z,66.20
2017-07-05T05:10:52.852Z,66.00
2017-07-05T05:13:21.725Z,65.60
2017-07-05T05:15:49.854Z,65.50
2017-07-05T05:18:17.980Z,66.10
2017-07-05T05:20:46.879Z,66.10
2017-07-05T05:23:15.001Z,66.00
2017-07-05T05:25:43.107Z,66.40
2017-07-05T05:28:11.352Z,65.80
2017-07-05T05:30:39.484Z,65.70
2017-07-05T05:33:08.384Z,65.30
2017-07-05T05:35:36.452Z,66.10
2017-07-05T05:38:04.589Z,65.30
2017-07-05T05:40:32.685Z,65.10
2017-07-05T05:43:00.920Z,64.80
2017-07-05T05:45:30.274Z,64.90
2017-07-05T05:47:59.151Z,65.20
2017-07-05T05:50:27.305Z,65.10
2017-07-05T05:52:55.418Z,65.10
2017-07-05T05:55:23.542Z,65.20
2017-07-05T05:57:51.651Z,65.80
2017-07-05T06:00:19.897Z,64.60
2017-07-05T06:02:48.038Z,64.40
2017-07-05T06:05:16.157Z,64.40
2017-07-05T06:07:44.302Z,64.80
2017-07-05T06:10:12.412Z,65.10
2017-07-05T06:12:40.520Z,65.30
2017-07-05T06:15:08.661Z,64.70
2017-07-05T06:17:36.772Z,64.50
2017-07-05T06:20:04.877Z,64.10
2017-07-05T06:22:33.148Z,63.60
2017-07-05T06:25:01.245Z,63.20
2017-07-05T06:27:29.362Z,64.10
2017-07-05T06:29:57.483Z,64.50
2017-07-05T06:32:25.595Z,64.00
2017-07-05T06:34:53.832Z,63.90
2017-07-05T06:37:21.932Z,64.60
2017-07-05T06:39:50.033Z,63.70
2017-07-05T06:42:18.918Z,63.00
2017-07-05T06:44:47.813Z,64.00
2017-07-05T06:47:15.927Z,63.20
2017-07-05T06:49:44.048Z,62.00
2017-07-05T06:52:12.285Z,62.70
2017-07-05T06:54:40.413Z,63.00
2017-07-05T06:57:08.550Z,61.60
2017-07-05T06:59:36.653Z,61.30
2017-07-05T07:02:04.794Z,61.10
2017-07-05T07:04:32.894Z,61.50
2017-07-05T07:07:00.983Z,61.90
2017-07-05T07:09:29.233Z,59.60
2017-07-05T07:11:57.332Z,59.10
2017-07-05T07:14:25.464Z,59.30
2017-07-05T07:16:53.565Z,60.40
2017-07-05T07:19:21.735Z,60.00
2017-07-05T07:21:49.824Z,59.60
2017-07-05T07:24:17.925Z,58.80
2017-07-05T07:26:46.046Z,58.40
2017-07-05T07:29:14.134Z,59.30
2017-07-05T07:31:42.273Z,59.50
2017-07-05T07:34:10.372Z,56.80
2017-07-05T07:36:38.474Z,58.00
2017-07-05T07:39:06.704Z,57.00
2017-07-05T07:41:34.791Z,56.40
2017-07-05T07:44:03.671Z,57.50
2017-07-05T07:46:31.762Z,56.80
2017-07-05T07:49:00.636Z,56.00
2017-07-05T07:51:28.754Z,56.00
2017-07-05T07:53:56.853Z,56.00
2017-07-05T07:56:25.096Z,56.30
2017-07-05T07:58:53.197Z,55.90
2017-07-05T08:01:21.304Z,53.80
2017-07-05T08:03:50.633Z,55.40
2017-07-05T08:06:18.733Z,54.20
2017-07-05T08:08:47.609Z,55.70
2017-07-05T08:11:15.843Z,55.60
2017-07-05T08:13:43.931Z,55.50
2017-07-05T08:16:12.056Z,54.70
2017-07-05T08:18:40.151Z,55.10
2017-07-05T08:21:08.246Z,56.30
2017-07-05T08:23:36.381Z,53.20
2017-07-05T08:26:04.472Z,54.70
2017-07-05T08:28:33.500Z,55.20
2017-07-05T08:31:01.582Z,55.10
2017-07-05T08:33:29.695Z,53.40
2017-07-05T08:35:57.825Z,53.20
2017-07-05T08:38:25.941Z,52.70
2017-07-05T08:40:54.024Z,53.00
2017-07-05T08:43:22.161Z,53.10
2017-07-05T08:45:50.253Z,50.50
2017-07-05T08:48:18.360Z,51.10
2017-07-05T08:50:46.587Z,50.10
2017-07-05T08:53:14.765Z,50.80
2017-07-05T08:55:42.892Z,50.70
2017-07-05T08:58:10.991Z,53.00
2017-07-05T09:00:39.133Z,52.50
2017-07-05T09:03:07.362Z,51.00
2017-07-05T09:05:35.458Z,50.60
2017-07-05T09:08:03.585Z,49.10
2017-07-05T09:10:31.697Z,50.30
2017-07-05T09:12:59.797Z,50.20
2017-07-05T09:15:27.925Z,49.30
2017-07-05T09:17:56.026Z,51.20
2017-07-05T09:20:24.121Z,51.60
2017-07-05T09:22:52.352Z,50.80
2017-07-05T09:25:20.445Z,53.10
2017-07-05T09:27:49.346Z,49.60
2017-07-05T09:30:18.198Z,51.20
2017-07-05T09:32:46.294Z,51.20
2017-07-05T09:35:14.418Z,50.00
2017-07-05T09:37:42.514Z,47.70
2017-07-05T09:40:10.744Z,49.20
2017-07-05T09:42:39.606Z,49.60
2017-07-05T09:45:07.744Z,49.60
2017-07-05T09:47:35.837Z,46.70
2017-07-05T09:50:03.913Z,48.90
2017-07-05T09:52:32.029Z,47.30
2017-07-05T09:55:00.277Z,46.20
2017-07-05T09:57:28.360Z,45.90
2017-07-05T09:59:57.598Z,46.20
2017-07-05T10:02:25.716Z,46.60
2017-07-05T10:04:53.812Z,47.20
2017-07-05T10:07:21.936Z,45.10
2017-07-05T10:09:50.797Z,43.40
2017-07-05T10:12:18.886Z,43.40
